Time;durP1;ratioP1;P1;durP2;ratioP2;P2;SDS_P1;SDS_P2;PMS_P1;PMS_P2;Temp;Humidity;BMP_temperature;BMP_pressure;BME280_temperature;BME280_humidity;BME280_pressure;Samples;Min_cycle;Max_cycle;Signal;HPM_P1;HPM_P2
2022/02/14 00:01:58;;;;;;;14.87;10.57;;;;;;;0.69;79.57;100821.95;1719116;82;21517;-77
2022/02/14 00:04:24;;;;;;;17.10;11.63;;;;;;;0.68;79.51;100822.92;1710697;82;20990;-73
2022/02/14 00:06:52;;;;;;;18.53;13.57;;;;;;;0.68;79.54;100813.17;1744333;81;21001;-70
2022/02/14 00:09:20;;;;;;;18.70;12.63;;;;;;;0.68;79.49;100814.49;1714372;83;21029;-70
2022/02/14 00:11:47;;;;;;;16.40;11.33;;;;;;;0.66;79.50;100811.20;1706567;83;21107;-77
2022/02/14 00:14:15;;;;;;;16.97;12.50;;;;;;;0.65;79.43;100806.88;1661845;84;20934;-81
2022/02/14 00:16:41;;;;;;;16.83;11.93;;;;;;;0.64;79.45;100803.89;1706566;84;21008;-79
2022/02/14 00:19:08;;;;;;;21.07;12.87;;;;;;;0.63;79.44;100796.09;1706765;84;20978;-73
2022/02/14 00:21:34;;;;;;;18.27;12.27;;;;;;;0.63;79.46;100792.13;1704548;84;20960;-74
2022/02/14 00:24:02;;;;;;;18.27;13.13;;;;;;;0.63;79.39;100786.83;1678160;84;21063;-76
2022/02/14 00:26:31;;;;;;;20.80;13.23;;;;;;;0.56;79.47;100787.15;1642830;85;20991;-74
2022/02/14 00:28:58;;;;;;;22.20;14.70;;;;;;;0.56;79.60;100785.33;1694476;83;21087;-74
2022/02/14 00:31:25;;;;;;;21.90;13.93;;;;;;;0.56;79.57;100784.02;1695916;83;21473;-74
2022/02/14 00:33:51;;;;;;;15.93;10.67;;;;;;;0.58;79.58;100781.18;1725071;82;21697;-74
2022/02/14 00:36:17;;;;;;;20.13;14.13;;;;;;;0.58;79.55;100782.51;1716708;83;20921;-74
2022/02/14 00:38:44;;;;;;;20.97;13.13;;;;;;;0.56;79.51;100787.15;1716605;83;22383;-73
2022/02/14 00:41:11;;;;;;;18.40;13.40;;;;;;;0.51;79.58;100784.14;1716661;83;21206;-70
2022/02/14 00:43:37;;;;;;;17.30;12.27;;;;;;;0.50;79.59;100779.83;1715324;83;21110;-74
2022/02/14 00:46:04;;;;;;;22.57;13.37;;;;;;;0.51;79.64;100785.47;1694081;83;21035;-70
2022/02/14 00:48:30;;;;;;;16.40;12.20;;;;;;;0.50;79.63;100791.25;1693954;83;21040;-72
2022/02/14 00:50:57;;;;;;;24.63;17.33;;;;;;;0.49;79.59;100788.75;1716566;83;21158;-72
2022/02/14 00:53:24;;;;;;;22.03;13.83;;;;;;;0.49;79.62;100792.72;1716411;83;21032;-68
2022/02/14 00:55:51;;;;;;;20.27;12.33;;;;;;;0.48;79.62;100795.86;1711703;83;21024;-76
2022/02/14 00:58:17;;;;;;;24.57;14.73;;;;;;;0.47;79.62;100792.91;1697412;83;21046;-69
2022/02/14 01:00:44;;;;;;;19.03;12.97;;;;;;;0.43;79.60;100787.07;1716541;82;21099;-72
2022/02/14 01:03:11;;;;;;;22.40;12.27;;;;;;;0.43;79.62;100779.13;1716349;83;21758;-71
2022/02/14 01:05:37;;;;;;;20.87;12.97;;;;;;;0.42;79.62;100782.79;1701944;82;20952;-69
2022/02/14 01:08:05;;;;;;;22.87;14.10;;;;;;;0.40;79.61;100778.13;1686688;83;21321;-69
2022/02/14 01:10:31;;;;;;;18.03;13.03;;;;;;;0.40;79.65;100770.69;1644243;85;21000;-72
2022/02/14 01:12:58;;;;;;;35.00;17.03;;;;;;;0.38;79.64;100774.00;1666706;85;21083;-78
2022/02/14 01:15:25;;;;;;;23.67;14.33;;;;;;;0.36;79.66;100774.15;1686129;84;21140;-77
2022/02/14 01:17:52;;;;;;;19.80;13.43;;;;;;;0.35;79.68;100778.27;1671509;84;20949;-73
2022/02/14 01:20:19;;;;;;;25.87;13.37;;;;;;;0.34;79.74;100776.59;1694664;83;21034;-76
2022/02/14 01:22:45;;;;;;;18.30;12.10;;;;;;;0.34;79.69;100766.02;1715440;83;21072;-77
2022/02/14 01:25:11;;;;;;;21.63;11.87;;;;;;;0.33;79.68;100764.38;1751701;81;20975;-78
2022/02/14 01:27:39;;;;;;;19.10;12.90;;;;;;;0.31;79.76;100767.17;1733418;82;21118;-83
2022/02/14 01:30:06;;;;;;;19.77;13.70;;;;;;;0.32;79.77;100760.07;1716723;82;21016;-87
2022/02/14 01:32:33;;;;;;;22.03;13.63;;;;;;;0.31;79.79;100753.95;1697765;81;21505;-88
2022/02/14 01:34:59;;;;;;;18.80;12.67;;;;;;;0.32;79.78;100750.81;1720782;82;20986;-84
2022/02/14 01:37:25;;;;;;;17.40;11.43;;;;;;;0.31;79.76;100745.17;1730505;81;21015;-80
2022/02/14 01:39:52;;;;;;;21.77;14.00;;;;;;;0.29;79.78;100751.11;1733783;81;21508;-77
2022/02/14 01:42:18;;;;;;;20.00;12.93;;;;;;;0.26;79.75;100743.50;1719234;81;21670;-79
2022/02/14 01:44:47;;;;;;;19.60;13.40;;;;;;;0.21;79.84;100749.27;1733367;81;20999;-81
2022/02/14 01:47:18;;;;;;;17.17;12.33;;;;;;;0.19;79.91;100745.13;1710199;82;21141;-79
2022/02/14 01:49:45;;;;;;;20.80;12.33;;;;;;;0.19;80.00;100743.28;1732815;82;21555;-78
2022/02/14 01:52:11;;;;;;;19.40;13.00;;;;;;;0.22;79.93;100746.13;1710013;82;20979;-74
2022/02/14 01:54:44;;;;;;;23.27;14.03;;;;;;;0.24;79.91;100748.13;1692675;82;21048;-75
2022/02/14 01:57:11;;;;;;;15.77;12.13;;;;;;;0.23;79.95;100745.14;1705315;84;21005;-75
2022/02/14 01:59:39;;;;;;;17.50;12.33;;;;;;;0.24;80.00;100741.00;1704012;84;20990;-76
2022/02/14 02:02:06;;;;;;;21.53;12.80;;;;;;;0.25;79.82;100750.59;1705949;83;21073;-75
2022/02/14 02:04:33;;;;;;;21.83;13.07;;;;;;;0.23;79.72;100742.50;1713564;83;21107;-77
2022/02/14 02:06:59;;;;;;;21.20;12.13;;;;;;;0.22;79.75;100738.19;1725134;81;22247;-72
2022/02/14 02:09:26;;;;;;;17.93;11.90;;;;;;;0.21;79.76;100734.71;1764536;80;21042;-73
2022/02/14 02:14:38;;;;;;;22.30;13.73;;;;;;;0.14;79.65;100723.61;1705452;82;21599;-72
2022/02/14 02:17:04;;;;;;;22.30;15.63;;;;;;;0.12;79.66;100725.08;1712946;82;21086;-73
2022/02/14 02:19:32;;;;;;;27.27;17.87;;;;;;;0.11;79.67;100717.28;1710468;82;21347;-73
2022/02/14 02:21:58;;;;;;;26.13;17.97;;;;;;;0.11;79.69;100714.16;1710326;82;21014;-73
2022/02/14 02:24:25;;;;;;;25.50;17.67;;;;;;;0.11;79.68;100715.97;1733551;82;21048;-74
2022/02/14 02:27:00;;;;;;;27.33;16.77;;;;;;;0.08;79.63;100713.16;1735668;81;21054;-77
2022/02/14 02:29:27;;;;;;;22.30;14.77;;;;;;;0.04;79.68;100706.53;1737203;82;21150;-77
2022/02/14 02:31:53;;;;;;;24.70;15.67;;;;;;;0.03;79.75;100713.28;1738579;81;21030;-74
2022/02/14 02:34:20;;;;;;;20.37;13.63;;;;;;;0.04;79.77;100709.17;1737836;82;21033;-74
2022/02/14 02:36:54;;;;;;;22.83;14.10;;;;;;;0.04;79.72;100708.34;1710620;82;20939;-75
2022/02/14 02:39:20;;;;;;;19.97;14.33;;;;;;;0.04;79.74;100714.95;1723670;82;21055;-75
2022/02/14 02:41:47;;;;;;;20.57;13.73;;;;;;;0.02;79.71;100708.48;1706968;84;21607;-75
2022/02/14 02:44:13;;;;;;;19.07;12.60;;;;;;;0.00;79.75;100699.38;1706806;84;21025;-75
2022/02/14 02:46:40;;;;;;;20.03;12.40;;;;;;;0.00;79.73;100701.22;1706952;82;21527;-75
2022/02/14 02:49:14;;;;;;;21.27;13.73;;;;;;;-0.01;79.74;100697.74;1680253;84;21090;-76
2022/02/14 02:51:43;;;;;;;19.00;12.10;;;;;;;0.00;79.68;100697.25;1706786;84;21094;-76
2022/02/14 02:54:09;;;;;;;20.83;13.57;;;;;;;0.00;79.66;100697.25;1719402;82;21149;-76
2022/02/14 02:56:39;;;;;;;21.67;11.53;;;;;;;-0.03;79.62;100694.41;1708972;82;22245;-75
2022/02/14 02:59:05;;;;;;;18.40;11.90;;;;;;;-0.06;79.60;100693.91;1680406;84;21544;-74
2022/02/14 03:01:32;;;;;;;18.07;11.47;;;;;;;-0.10;79.66;100699.18;1706835;84;21570;-75
2022/02/14 03:03:58;;;;;;;22.20;11.30;;;;;;;-0.10;79.76;100698.69;1706736;84;21087;-73
2022/02/14 03:06:24;;;;;;;18.23;13.03;;;;;;;-0.08;79.74;100696.70;1700101;82;21560;-76
2022/02/14 03:08:51;;;;;;;19.23;12.00;;;;;;;-0.08;79.73;100697.19;1717459;81;21015;-77
2022/02/14 03:11:18;;;;;;;21.13;11.57;;;;;;;-0.09;79.71;100685.78;1742687;81;21039;-76
2022/02/14 03:13:44;;;;;;;21.33;11.40;;;;;;;-0.10;79.78;100685.47;1768905;81;20971;-76
2022/02/14 03:16:12;;;;;;;17.57;13.17;;;;;;;-0.10;79.78;100686.79;1748523;81;21523;-75
2022/02/14 03:18:40;;;;;;;16.27;11.93;;;;;;;-0.10;79.73;100685.95;1680486;84;21936;-75
2022/02/14 03:21:06;;;;;;;19.03;12.43;;;;;;;-0.12;79.71;100687.91;1679974;84;21059;-77
2022/02/14 03:23:34;;;;;;;17.13;11.83;;;;;;;-0.12;79.73;100690.56;1705078;84;21078;-71
2022/02/14 03:26:01;;;;;;;20.97;10.53;;;;;;;-0.14;79.72;100689.38;1704301;83;21008;-73
2022/02/14 03:28:29;;;;;;;19.93;12.60;;;;;;;-0.15;79.75;100689.07;1702210;83;20951;-75
2022/02/14 03:30:55;;;;;;;16.17;9.90;;;;;;;-0.18;79.78;100682.75;1725806;82;21584;-73
2022/02/14 03:33:22;;;;;;;14.47;10.47;;;;;;;-0.18;79.89;100693.33;1701226;83;20991;-74
2022/02/14 03:35:48;;;;;;;17.13;11.00;;;;;;;-0.19;79.85;100689.02;1692500;83;20939;-74
2022/02/14 03:38:15;;;;;;;11.57;9.37;;;;;;;-0.22;79.91;100690.66;1694711;83;21055;-76
2022/02/14 03:40:42;;;;;;;17.33;11.17;;;;;;;-0.22;80.00;100703.05;1690740;83;21012;-75
2022/02/14 03:43:08;;;;;;;17.90;11.90;;;;;;;-0.26;80.03;100687.17;1702086;83;21294;-72
2022/02/14 03:45:36;;;;;;;21.40;10.60;;;;;;;-0.26;80.18;100689.81;1691821;84;21612;-74
2022/02/14 03:48:03;;;;;;;16.30;9.13;;;;;;;-0.27;80.25;100686.83;1724970;83;21542;-71
2022/02/14 03:50:30;;;;;;;16.17;11.93;;;;;;;-0.30;80.26;100680.54;1693874;83;21031;-73
2022/02/14 03:52:57;;;;;;;16.70;11.87;;;;;;;-0.32;80.34;100690.42;1693074;84;21100;-72
2022/02/14 03:55:23;;;;;;;13.33;10.77;;;;;;;-0.32;80.42;100686.45;1674642;85;22147;-73
2022/02/14 03:57:50;;;;;;;20.93;12.43;;;;;;;-0.30;80.50;100688.47;1674064;85;21714;-73
2022/02/14 04:00:19;;;;;;;24.20;13.10;;;;;;;-0.31;80.48;100688.13;1667353;83;21024;-73
2022/02/14 04:02:46;;;;;;;16.67;10.07;;;;;;;-0.35;80.48;100682.33;1725037;83;21560;-74
2022/02/14 04:05:14;;;;;;;16.30;12.17;;;;;;;-0.37;80.57;100684.77;1725320;83;21493;-74
2022/02/14 04:07:41;;;;;;;14.60;10.60;;;;;;;-0.37;80.65;100682.96;1725113;83;22264;-73
2022/02/14 04:10:10;;;;;;;16.73;11.13;;;;;;;-0.36;80.65;100672.73;1728132;82;20965;-73
2022/02/14 04:12:38;;;;;;;11.20;8.77;;;;;;;-0.36;80.63;100664.80;1744949;82;21003;-72
2022/02/14 04:15:06;;;;;;;17.17;11.27;;;;;;;-0.37;80.69;100667.11;1716266;82;21137;-71
2022/02/14 04:17:35;;;;;;;21.37;11.83;;;;;;;-0.39;80.68;100671.73;1667873;86;21533;-73
2022/02/14 04:20:02;;;;;;;15.33;10.53;;;;;;;-0.39;80.73;100670.41;1711206;83;21497;-72
2022/02/14 04:22:31;;;;;;;20.83;12.57;;;;;;;-0.39;80.73;100674.86;1701044;83;21079;-73
2022/02/14 04:24:57;;;;;;;20.87;13.60;;;;;;;-0.40;80.74;100671.39;1721301;83;21568;-74
2022/02/14 04:27:24;;;;;;;20.13;12.90;;;;;;;-0.39;80.73;100662.98;1750585;81;21001;-74
2022/02/14 04:29:50;;;;;;;19.20;10.93;;;;;;;-0.40;80.77;100668.75;1751346;80;21021;-73
2022/02/14 04:32:17;;;;;;;15.63;10.90;;;;;;;-0.41;80.80;100660.48;1758630;81;20986;-74
2022/02/14 04:34:45;;;;;;;19.03;12.87;;;;;;;-0.41;80.79;100656.52;1739565;80;21043;-72
2022/02/14 04:37:11;;;;;;;18.23;13.53;;;;;;;-0.42;80.82;100656.17;1727248;83;21013;-73
2022/02/14 04:39:37;;;;;;;16.07;11.83;;;;;;;-0.42;80.89;100657.48;1727008;83;21369;-73
2022/02/14 04:42:04;;;;;;;18.77;11.50;;;;;;;-0.43;80.87;100661.11;1757878;80;21473;-73
2022/02/14 04:44:31;;;;;;;14.57;10.93;;;;;;;-0.45;80.92;100659.97;1758912;81;21108;-72
2022/02/14 04:46:57;;;;;;;19.17;11.20;;;;;;;-0.48;80.91;100664.22;1767636;80;20932;-75
2022/02/14 04:49:24;;;;;;;15.37;10.27;;;;;;;-0.52;81.08;100677.89;1693992;83;21633;-72
2022/02/14 04:51:50;;;;;;;15.13;9.97;;;;;;;-0.53;81.15;100669.14;1754719;80;21567;-72
2022/02/14 04:54:16;;;;;;;18.00;11.17;;;;;;;-0.54;81.22;100682.52;1738137;82;20991;-72
2022/02/14 04:56:42;;;;;;;14.53;9.70;;;;;;;-0.55;81.28;100685.66;1756464;81;21501;-73
2022/02/14 04:59:09;;;;;;;20.10;12.80;;;;;;;-0.54;81.34;100689.96;1762963;80;21060;-73
2022/02/14 05:01:35;;;;;;;13.63;10.37;;;;;;;-0.53;81.31;100683.67;1719051;81;21094;-73
2022/02/14 05:04:02;;;;;;;18.63;12.13;;;;;;;-0.48;81.36;100695.93;1738348;82;21722;-73
2022/02/14 05:06:28;;;;;;;19.23;10.50;;;;;;;-0.49;81.24;100692.14;1737926;82;21023;-72
2022/02/14 05:08:55;;;;;;;20.93;11.10;;;;;;;-0.49;81.21;100692.14;1711624;82;21999;-73
2022/02/14 05:11:23;;;;;;;17.20;9.97;;;;;;;-0.55;81.24;100689.62;1741545;81;20978;-73
2022/02/14 05:13:50;;;;;;;12.90;8.67;;;;;;;-0.57;81.32;100685.45;1738089;82;21053;-73
2022/02/14 05:16:23;;;;;;;15.87;10.83;;;;;;;-0.58;81.45;100688.61;1710499;82;21508;-73
2022/02/14 05:18:45;;;;;;;19.83;12.30;;;;;;;-0.59;81.46;100694.87;1753218;81;20974;-75
2022/02/14 05:21:12;;;;;;;16.70;9.57;;;;;;;-0.59;81.51;100694.05;1759882;80;21520;-73
2022/02/14 05:23:38;;;;;;;17.60;12.07;;;;;;;-0.60;81.62;100702.45;1721900;81;21540;-71
2022/02/14 05:26:04;;;;;;;15.87;11.00;;;;;;;-0.59;81.66;100698.84;1736768;82;21042;-70
2022/02/14 05:28:32;;;;;;;18.73;11.33;;;;;;;-0.58;81.69;100699.19;1698652;83;21027;-71
2022/02/14 05:30:58;;;;;;;14.83;10.03;;;;;;;-0.59;81.68;100705.93;1685016;84;21644;-71
2022/02/14 05:33:26;;;;;;;18.50;10.90;;;;;;;-0.59;81.75;100699.33;1723030;82;21104;-71
2022/02/14 05:35:53;;;;;;;18.47;9.47;;;;;;;-0.60;81.76;100706.91;1723201;83;21609;-71
2022/02/14 05:38:19;;;;;;;13.40;9.40;;;;;;;-0.62;81.79;100708.37;1700770;83;20931;-72
2022/02/14 05:40:46;;;;;;;17.50;11.10;;;;;;;-0.63;81.86;100712.02;1676610;83;20924;-72
2022/02/14 05:43:13;;;;;;;16.57;9.03;;;;;;;-0.63;81.96;100724.39;1693516;83;21008;-73
2022/02/14 05:45:39;;;;;;;20.37;11.10;;;;;;;-0.66;82.06;100718.08;1702497;84;21551;-71
2022/02/14 05:48:06;;;;;;;17.17;8.93;;;;;;;-0.68;82.19;100720.89;1680341;84;21579;-72
2022/02/14 05:50:33;;;;;;;18.43;11.07;;;;;;;-0.68;82.29;100722.70;1681558;84;21038;-70
2022/02/14 05:52:59;;;;;;;14.60;10.10;;;;;;;-0.67;82.34;100730.97;1723153;83;20970;-73
2022/02/14 05:55:26;;;;;;;16.43;10.67;;;;;;;-0.66;82.42;100732.11;1656904;85;21528;-69
2022/02/14 05:57:52;;;;;;;15.40;10.10;;;;;;;-0.64;82.46;100726.20;1694591;84;22119;-73
2022/02/14 06:00:19;;;;;;;15.80;10.40;;;;;;;-0.62;82.40;100728.67;1706098;82;21560;-71
2022/02/14 06:02:46;;;;;;;15.17;10.33;;;;;;;-0.62;82.43;100729.50;1699663;83;21012;-70
2022/02/14 06:05:12;;;;;;;12.17;8.97;;;;;;;-0.64;82.47;100730.16;1704652;84;21099;-70
2022/02/14 06:07:38;;;;;;;17.23;10.37;;;;;;;-0.63;82.50;100734.47;1723360;83;21532;-71
2022/02/14 06:10:08;;;;;;;18.37;12.03;;;;;;;-0.66;82.55;100728.16;1724062;82;21195;-68
2022/02/14 06:12:36;;;;;;;15.43;10.23;;;;;;;-0.71;82.67;100730.91;1699617;83;20971;-70
2022/02/14 06:15:02;;;;;;;15.00;10.40;;;;;;;-0.71;82.89;100729.58;1685868;84;21091;-70
2022/02/14 06:17:29;;;;;;;16.53;11.17;;;;;;;-0.69;82.94;100730.28;1692911;84;21067;-71
2022/02/14 06:19:55;;;;;;;23.07;13.90;;;;;;;-0.67;83.00;100738.89;1670330;83;21556;-74
2022/02/14 06:22:22;;;;;;;20.27;14.20;;;;;;;-0.63;83.04;100729.67;1696068;82;21106;-71
2022/02/14 06:24:48;;;;;;;16.50;12.70;;;;;;;-0.60;82.98;100742.56;1692613;84;20968;-71
2022/02/14 06:27:14;;;;;;;16.03;12.23;;;;;;;-0.55;82.98;100732.37;1670920;84;21003;-71
2022/02/14 06:29:40;;;;;;;19.87;13.47;;;;;;;-0.53;82.84;100733.87;1672457;84;22210;-68
2022/02/14 06:32:07;;;;;;;19.07;12.63;;;;;;;-0.51;82.80;100735.05;1721961;82;21524;-69
2022/02/14 06:34:33;;;;;;;18.03;12.57;;;;;;;-0.52;82.76;100737.34;1679018;83;22110;-71
2022/02/14 06:37:00;;;;;;;20.73;13.43;;;;;;;-0.53;82.79;100744.44;1713689;83;21023;-69
2022/02/14 06:39:26;;;;;;;18.40;12.37;;;;;;;-0.52;82.79;100743.46;1690722;82;21003;-74
2022/02/14 06:41:52;;;;;;;18.00;11.03;;;;;;;-0.50;82.79;100737.55;1730708;82;20948;-72
2022/02/14 06:44:19;;;;;;;19.47;11.60;;;;;;;-0.47;82.77;100737.23;1725087;83;21480;-72
2022/02/14 06:46:45;;;;;;;17.00;12.03;;;;;;;-0.45;82.77;100731.80;1724899;83;21540;-73
2022/02/14 06:49:12;;;;;;;21.60;12.63;;;;;;;-0.40;82.73;100727.38;1693905;83;21572;-75
2022/02/14 06:51:39;;;;;;;17.27;12.17;;;;;;;-0.39;82.61;100733.00;1703063;83;20995;-74
2022/02/14 06:54:06;;;;;;;19.50;11.43;;;;;;;-0.42;82.50;100728.01;1662523;85;21089;-73
2022/02/14 06:56:32;;;;;;;25.67;14.37;;;;;;;-0.38;82.47;100732.03;1688608;84;21053;-74
2022/02/14 06:58:58;;;;;;;22.20;14.07;;;;;;;-0.34;82.46;100722.80;1695998;83;21139;-81
2022/02/14 07:01:25;;;;;;;20.00;13.50;;;;;;;-0.34;82.25;100718.35;1702143;83;21611;-76
2022/02/14 07:03:51;;;;;;;15.43;11.70;;;;;;;-0.32;82.06;100713.72;1703986;84;20960;-74
2022/02/14 07:06:18;;;;;;;20.37;13.13;;;;;;;-0.26;82.13;100721.53;1724688;83;21076;-74
2022/02/14 07:08:44;;;;;;;22.67;12.30;;;;;;;-0.20;82.10;100718.27;1714668;83;21548;-74
2022/02/14 07:11:11;;;;;;;17.20;11.73;;;;;;;-0.18;81.63;100725.54;1705596;83;21111;-74
2022/02/14 07:13:37;;;;;;;17.53;12.10;;;;;;;-0.17;81.56;100717.47;1703916;84;21044;-72
2022/02/14 07:16:04;;;;;;;19.93;13.90;;;;;;;-0.14;81.56;100729.04;1720651;83;21056;-70
2022/02/14 07:18:33;;;;;;;23.30;12.47;;;;;;;-0.11;81.40;100730.07;1704434;83;21524;-70
2022/02/14 07:21:01;;;;;;;26.67;14.60;;;;;;;-0.05;81.33;100714.87;1721461;82;20960;-71
2022/02/14 07:23:28;;;;;;;22.47;13.07;;;;;;;-0.01;81.02;100723.36;1723037;82;21226;-73
2022/02/14 07:25:54;;;;;;;20.47;15.37;;;;;;;0.02;80.93;100718.23;1702183;83;20909;-72
2022/02/14 07:28:22;;;;;;;21.87;15.27;;;;;;;0.03;80.70;100723.86;1729534;82;20997;-71
2022/02/14 07:30:49;;;;;;;28.87;13.50;;;;;;;0.04;80.75;100714.95;1720211;82;21670;-73
2022/02/14 07:33:15;;;;;;;18.63;11.93;;;;;;;0.09;80.70;100729.86;1721618;83;21055;-73
2022/02/14 07:35:42;;;;;;;18.60;12.80;;;;;;;0.16;80.55;100727.73;1678061;83;21559;-72
2022/02/14 07:38:09;;;;;;;18.60;12.53;;;;;;;0.27;80.29;100714.25;1674586;85;21011;-71
2022/02/14 07:40:38;;;;;;;22.40;14.67;;;;;;;0.34;80.14;100713.09;1719869;82;21056;-73
2022/02/14 07:43:05;;;;;;;16.13;13.47;;;;;;;0.41;79.89;100711.00;1718986;83;21023;-73
2022/02/14 07:45:31;;;;;;;17.40;13.03;;;;;;;0.45;79.44;100711.50;1690292;84;21509;-73
2022/02/14 07:47:58;;;;;;;21.87;13.47;;;;;;;0.54;79.34;100707.89;1704553;84;21142;-74
2022/02/14 07:50:26;;;;;;;23.73;16.53;;;;;;;0.60;79.06;100714.37;1712953;83;20983;-73
2022/02/14 07:52:53;;;;;;;19.33;12.97;;;;;;;0.66;78.44;100721.19;1721776;83;21042;-74
2022/02/14 07:55:19;;;;;;;16.57;12.47;;;;;;;0.66;78.13;100723.84;1721841;82;21021;-74
2022/02/14 07:57:47;;;;;;;19.53;13.97;;;;;;;0.72;78.04;100719.20;1675639;83;21039;-71
2022/02/14 08:00:14;;;;;;;18.83;11.73;;;;;;;0.79;77.88;100704.83;1669263;84;21833;-72
2022/02/14 08:02:41;;;;;;;20.60;13.00;;;;;;;0.87;77.78;100704.84;1700306;82;21068;-72
2022/02/14 08:05:08;;;;;;;19.40;10.97;;;;;;;0.95;77.61;100709.34;1679871;84;21042;-74
2022/02/14 08:07:36;;;;;;;13.23;9.80;;;;;;;1.02;76.95;100715.63;1695938;84;20987;-73
2022/02/14 08:10:03;;;;;;;19.73;10.67;;;;;;;1.04;76.45;100723.77;1715729;83;20987;-73
2022/02/14 08:12:34;;;;;;;18.30;11.87;;;;;;;1.06;75.85;100711.16;1722943;83;21831;-77
2022/02/14 08:15:02;;;;;;;14.63;10.37;;;;;;;1.12;75.97;100729.55;1689878;84;20988;-75
2022/02/14 08:17:29;;;;;;;15.97;11.67;;;;;;;1.16;75.78;100730.88;1700187;83;21026;-74
2022/02/14 08:19:55;;;;;;;20.00;11.83;;;;;;;1.22;75.52;100724.44;1704738;84;21020;-75
2022/02/14 08:22:22;;;;;;;14.70;12.03;;;;;;;1.27;75.18;100725.27;1691453;84;21067;-74
2022/02/14 08:24:48;;;;;;;19.87;11.10;;;;;;;1.32;75.20;100718.98;1704467;83;21003;-76
2022/02/14 08:27:17;;;;;;;16.73;11.37;;;;;;;1.39;74.80;100728.44;1695112;82;21083;-77
2022/02/14 08:29:46;;;;;;;15.37;9.07;;;;;;;1.46;74.65;100722.80;1708401;81;21645;-76
2022/02/14 08:32:16;;;;;;;13.53;9.07;;;;;;;1.53;74.44;100727.28;1705378;83;20988;-79
2022/02/14 08:34:44;;;;;;;18.55;10.10;;;;;;;1.59;73.80;100731.91;1733436;81;20951;-78
2022/02/14 08:37:11;;;;;;;14.03;9.98;;;;;;;1.66;73.65;100746.66;1743525;81;20973;-75
2022/02/14 08:39:39;;;;;;;16.25;10.58;;;;;;;1.70;72.87;100749.30;1720653;81;21528;-76
2022/02/14 08:42:06;;;;;;;15.83;10.33;;;;;;;1.74;73.09;100751.45;1760639;80;21658;-78
2022/02/14 08:44:33;;;;;;;18.10;10.85;;;;;;;1.80;72.87;100743.34;1725116;83;20943;-77
2022/02/14 08:47:01;;;;;;;15.78;10.03;;;;;;;1.85;72.37;100764.05;1708807;81;21026;-79
2022/02/14 08:49:29;;;;;;;14.68;9.70;;;;;;;1.89;71.86;100746.30;1722041;83;22129;-79
2022/02/14 08:51:55;;;;;;;16.50;11.33;;;;;;;1.89;70.94;100739.67;1705990;82;21093;-79
2022/02/14 08:54:22;;;;;;;15.20;9.58;;;;;;;1.93;71.28;100732.20;1739799;81;20963;-83
2022/02/14 08:56:49;;;;;;;17.60;10.65;;;;;;;2.01;71.12;100726.91;1785929;80;21035;-81
2022/02/14 08:59:19;;;;;;;15.70;9.48;;;;;;;2.08;70.95;100722.55;1717455;81;21015;-81
2022/02/14 09:01:47;;;;;;;19.45;10.32;;;;;;;2.15;70.91;100738.98;1683327;84;21974;-79
2022/02/14 09:04:15;;;;;;;12.58;9.68;;;;;;;2.24;70.53;100727.83;1717638;82;21045;-78
2022/02/14 09:06:43;;;;;;;16.97;9.10;;;;;;;2.32;69.83;100741.56;1726928;83;21321;-76
2022/02/14 09:09:09;;;;;;;13.20;9.95;;;;;;;2.37;69.38;100735.25;1757919;81;21461;-79
2022/02/14 09:11:38;;;;;;;14.58;9.83;;;;;;;2.42;68.97;100720.96;1710889;82;21045;-79
2022/02/14 09:14:05;;;;;;;10.85;7.83;;;;;;;2.47;68.44;100722.60;1728994;83;21153;-77
2022/02/14 09:16:32;;;;;;;13.75;8.18;;;;;;;2.52;68.41;100731.71;1709213;83;21097;-78
2022/02/14 09:18:58;;;;;;;15.72;9.88;;;;;;;2.59;68.00;100730.01;1751837;80;21021;-83
2022/02/14 09:21:24;;;;;;;18.40;10.50;;;;;;;2.64;67.85;100722.84;1724324;81;21541;-81
2022/02/14 09:23:51;;;;;;;13.55;8.58;;;;;;;2.71;67.37;100734.95;1699066;81;21058;-79
2022/02/14 09:26:18;;;;;;;14.00;8.10;;;;;;;2.78;65.78;100727.95;1714542;83;21494;-78
2022/02/14 09:28:44;;;;;;;11.18;8.45;;;;;;;2.84;65.72;100720.09;1757329;80;21107;-76
2022/02/14 09:31:11;;;;;;;10.95;8.95;;;;;;;2.87;64.97;100720.27;1711043;81;21033;-74
2022/02/14 09:33:37;;;;;;;12.58;8.80;;;;;;;2.90;65.31;100719.41;1765233;81;20992;-75
2022/02/14 09:36:04;;;;;;;10.70;8.55;;;;;;;2.97;65.38;100715.03;1727744;81;21043;-76
2022/02/14 09:38:31;;;;;;;11.75;7.97;;;;;;;3.07;65.40;100706.83;1714141;81;20998;-76
2022/02/14 09:40:59;;;;;;;11.33;8.45;;;;;;;3.14;64.24;100707.80;1743396;81;20984;-77
2022/02/14 09:43:26;;;;;;;12.23;7.55;;;;;;;3.18;61.27;100713.08;1741683;81;21016;-76
2022/02/14 09:45:52;;;;;;;10.98;6.67;;;;;;;3.22;61.87;100709.05;1698374;84;21010;-75
2022/02/14 09:48:20;;;;;;;9.18;7.12;;;;;;;3.27;61.71;100696.56;1730578;81;21674;-75
2022/02/14 09:50:46;;;;;;;12.28;7.05;;;;;;;3.29;61.45;100698.05;1694956;82;21580;-77
2022/02/14 09:53:15;;;;;;;13.25;8.43;;;;;;;3.35;61.62;100696.52;1743029;80;20982;-80
2022/02/14 09:55:45;;;;;;;11.53;7.60;;;;;;;3.41;61.61;100689.13;1717504;81;21037;-76
2022/02/14 09:58:12;;;;;;;9.30;6.95;;;;;;;3.48;61.62;100696.73;1746379;80;21023;-78
2022/02/14 10:00:39;;;;;;;12.68;7.90;;;;;;;3.56;60.14;100712.61;1763794;81;20958;-73
2022/02/14 10:03:15;;;;;;;10.28;7.28;;;;;;;3.58;58.93;100705.80;1759290;81;21939;-75
2022/02/14 10:05:46;;;;;;;12.25;7.95;;;;;;;3.57;58.43;100691.66;1759645;80;21503;-76
2022/02/14 10:08:29;;;;;;;7.83;5.75;;;;;;;3.60;58.24;100690.50;1777648;80;20887;-76
2022/02/14 10:11:13;;;;;;;9.08;6.40;;;;;;;3.62;58.25;100694.61;1759239;81;21418;-77
2022/02/14 10:13:41;;;;;;;8.43;6.33;;;;;;;3.67;58.58;100681.59;1737767;80;21666;-76
2022/02/14 10:16:10;;;;;;;10.75;6.50;;;;;;;3.71;58.17;100690.86;1764316;80;21142;-74
2022/02/14 10:18:38;;;;;;;12.03;6.25;;;;;;;3.78;58.23;100681.67;1724404;81;21468;-77
2022/02/14 10:21:25;;;;;;;11.03;7.03;;;;;;;3.83;56.95;100672.64;1756297;80;20984;-75
2022/02/14 10:24:13;;;;;;;12.53;7.17;;;;;;;3.86;56.37;100689.06;1764021;80;20991;-74
2022/02/14 10:26:45;;;;;;;10.63;8.10;;;;;;;3.93;56.82;100677.20;1764225;80;21340;-82
2022/02/14 10:29:22;;;;;;;13.08;8.13;;;;;;;4.01;57.15;100681.09;1770658;80;21173;-89
2022/02/14 10:31:52;;;;;;;12.07;8.33;;;;;;;4.09;57.51;100689.48;1759244;81;21488;-86
2022/02/14 10:34:21;;;;;;;14.10;8.78;;;;;;;4.12;56.37;100683.80;1758535;80;21011;-80
2022/02/14 10:36:50;;;;;;;14.33;8.78;;;;;;;4.12;56.61;100662.01;1776040;80;21464;-76
2022/02/14 10:39:22;;;;;;;11.08;6.95;;;;;;;4.14;55.66;100664.47;1767218;80;21029;-77
2022/02/14 10:42:00;;;;;;;9.10;6.28;;;;;;;4.18;55.14;100683.05;1765509;80;21143;-77
2022/02/14 10:47:28;;;;;;;10.03;7.22;;;;;;;4.21;54.70;100673.38;1774051;80;21484;-73
2022/02/14 10:50:08;;;;;;;10.82;6.42;;;;;;;4.19;54.88;100675.39;1758974;80;20955;-73
2022/02/14 10:52:39;;;;;;;9.13;6.50;;;;;;;4.18;54.92;100661.25;1761768;80;21010;-72
2022/02/14 10:55:10;;;;;;;10.10;6.20;;;;;;;4.24;55.38;100667.67;1691551;81;21052;-72
2022/02/14 10:57:40;;;;;;;11.85;6.72;;;;;;;4.28;54.94;100653.80;1733519;81;21021;-73
2022/02/14 11:00:14;;;;;;;10.55;7.85;;;;;;;4.32;55.14;100669.73;1714711;83;20937;-73
2022/02/14 11:02:48;;;;;;;8.93;6.08;;;;;;;4.34;55.37;100663.73;1676529;82;21086;-74
2022/02/14 11:05:15;;;;;;;10.80;7.58;;;;;;;4.38;54.92;100669.00;1730385;81;21339;-71
2022/02/14 11:07:43;;;;;;;12.07;7.87;;;;;;;4.46;54.53;100648.61;1701518;84;21313;-73
2022/02/14 11:10:14;;;;;;;9.35;6.75;;;;;;;4.57;54.36;100657.43;1723240;83;21064;-74
2022/02/14 11:12:57;;;;;;;9.78;6.70;;;;;;;4.63;53.61;100654.86;1728509;80;21527;-72
2022/02/14 11:15:25;;;;;;;7.05;5.55;;;;;;;4.66;53.19;100653.14;1721949;83;21056;-77
2022/02/14 11:17:58;;;;;;;10.28;5.80;;;;;;;4.73;52.47;100662.05;1681938;84;21045;-77
2022/02/14 11:20:24;;;;;;;10.48;5.85;;;;;;;4.74;51.46;100652.22;1664291;82;21169;-79
2022/02/14 11:22:53;;;;;;;11.20;6.00;;;;;;;4.79;52.10;100651.97;1703914;81;21508;-78
2022/02/14 11:25:34;;;;;;;9.53;6.10;;;;;;;4.86;51.76;100636.03;1743507;81;21008;-78